sensor_id;sensor_type;location;lat;lon;timestamp;P1;durP1;ratioP1;P2;durP2;ratioP2
24407;SDS011;12542;50.924;4.516;2022-12-22T00:02:00;11.13;;;5.78;;
24407;SDS011;12542;50.924;4.516;2022-12-22T00:04:47;7.03;;;5.50;;
24407;SDS011;12542;50.924;4.516;2022-12-22T00:07:32;7.53;;;5.22;;
24407;SDS011;12542;50.924;4.516;2022-12-22T00:13:01;8.05;;;5.72;;
24407;SDS011;12542;50.924;4.516;2022-12-22T00:18:30;6.25;;;4.28;;
24407;SDS011;12542;50.924;4.516;2022-12-22T00:21:17;5.78;;;4.25;;
24407;SDS011;12542;50.924;4.516;2022-12-22T00:24:01;8.82;;;4.63;;
24407;SDS011;12542;50.924;4.516;2022-12-22T00:26:46;7.82;;;4.40;;
24407;SDS011;12542;50.924;4.516;2022-12-22T00:29:33;10.77;;;4.60;;
24407;SDS011;12542;50.924;4.516;2022-12-22T00:32:23;5.25;;;4.22;;
24407;SDS011;12542;50.924;4.516;2022-12-22T00:35:15;6.03;;;3.67;;
24407;SDS011;12542;50.924;4.516;2022-12-22T00:37:59;5.93;;;3.83;;
24407;SDS011;12542;50.924;4.516;2022-12-22T00:40:43;6.20;;;3.70;;
24407;SDS011;12542;50.924;4.516;2022-12-22T00:43:27;6.07;;;3.53;;
24407;SDS011;12542;50.924;4.516;2022-12-22T00:46:11;8.25;;;3.42;;
24407;SDS011;12542;50.924;4.516;2022-12-22T00:48:59;4.20;;;3.30;;
24407;SDS011;12542;50.924;4.516;2022-12-22T00:51:44;5.28;;;3.42;;
24407;SDS011;12542;50.924;4.516;2022-12-22T00:54:28;3.20;;;2.72;;
24407;SDS011;12542;50.924;4.516;2022-12-22T00:57:14;7.65;;;3.30;;
24407;SDS011;12542;50.924;4.516;2022-12-22T01:00:01;6.10;;;3.25;;
24407;SDS011;12542;50.924;4.516;2022-12-22T01:02:46;4.43;;;3.10;;
24407;SDS011;12542;50.924;4.516;2022-12-22T01:05:30;6.03;;;3.47;;
24407;SDS011;12542;50.924;4.516;2022-12-22T01:08:15;6.03;;;3.67;;
24407;SDS011;12542;50.924;4.516;2022-12-22T01:10:59;5.32;;;3.45;;
24407;SDS011;12542;50.924;4.516;2022-12-22T01:13:44;4.15;;;3.20;;
24407;SDS011;12542;50.924;4.516;2022-12-22T01:16:28;5.75;;;4.05;;
24407;SDS011;12542;50.924;4.516;2022-12-22T01:19:13;10.53;;;5.03;;
24407;SDS011;12542;50.924;4.516;2022-12-22T01:21:57;6.47;;;4.45;;
24407;SDS011;12542;50.924;4.516;2022-12-22T01:24:41;8.48;;;5.63;;
24407;SDS011;12542;50.924;4.516;2022-12-22T01:27:27;10.50;;;5.50;;
24407;SDS011;12542;50.924;4.516;2022-12-22T01:30:11;6.97;;;4.63;;
24407;SDS011;12542;50.924;4.516;2022-12-22T01:32:55;6.30;;;4.03;;
24407;SDS011;12542;50.924;4.516;2022-12-22T01:35:39;5.15;;;3.75;;
24407;SDS011;12542;50.924;4.516;2022-12-22T01:38:23;6.15;;;3.75;;
24407;SDS011;12542;50.924;4.516;2022-12-22T01:41:09;4.47;;;3.50;;
24407;SDS011;12542;50.924;4.516;2022-12-22T01:43:57;4.38;;;3.42;;
24407;SDS011;12542;50.924;4.516;2022-12-22T01:46:42;5.55;;;3.30;;
24407;SDS011;12542;50.924;4.516;2022-12-22T01:49:35;4.82;;;3.42;;
24407;SDS011;12542;50.924;4.516;2022-12-22T01:52:23;4.97;;;3.77;;
24407;SDS011;12542;50.924;4.516;2022-12-22T01:55:14;6.00;;;3.97;;
24407;SDS011;12542;50.924;4.516;2022-12-22T01:58:02;7.20;;;4.47;;
24407;SDS011;12542;50.924;4.516;2022-12-22T02:00:48;5.10;;;4.10;;
24407;SDS011;12542;50.924;4.516;2022-12-22T02:03:32;8.30;;;4.50;;
24407;SDS011;12542;50.924;4.516;2022-12-22T02:15:37;6.10;;;4.88;;
24407;SDS011;12542;50.924;4.516;2022-12-22T02:18:37;7.53;;;4.35;;
24407;SDS011;12542;50.924;4.516;2022-12-22T02:21:28;6.32;;;4.90;;
24407;SDS011;12542;50.924;4.516;2022-12-22T02:24:32;6.23;;;3.97;;
24407;SDS011;12542;50.924;4.516;2022-12-22T02:27:25;7.43;;;4.20;;
24407;SDS011;12542;50.924;4.516;2022-12-22T02:30:12;7.15;;;5.22;;
24407;SDS011;12542;50.924;4.516;2022-12-22T02:32:56;6.97;;;4.95;;
24407;SDS011;12542;50.924;4.516;2022-12-22T02:35:50;7.07;;;5.22;;
24407;SDS011;12542;50.924;4.516;2022-12-22T02:48:22;7.68;;;5.20;;
24407;SDS011;12542;50.924;4.516;2022-12-22T02:51:33;6.40;;;4.80;;
24407;SDS011;12542;50.924;4.516;2022-12-22T02:54:21;9.93;;;5.70;;
24407;SDS011;12542;50.924;4.516;2022-12-22T02:57:07;7.53;;;5.40;;
24407;SDS011;12542;50.924;4.516;2022-12-22T02:59:51;6.75;;;5.18;;
24407;SDS011;12542;50.924;4.516;2022-12-22T03:02:36;8.93;;;4.55;;
24407;SDS011;12542;50.924;4.516;2022-12-22T03:05:20;27.20;;;4.93;;
24407;SDS011;12542;50.924;4.516;2022-12-22T03:08:04;6.15;;;4.63;;
24407;SDS011;12542;50.924;4.516;2022-12-22T03:10:48;8.68;;;5.10;;
24407;SDS011;12542;50.924;4.516;2022-12-22T03:13:32;11.25;;;4.93;;
24407;SDS011;12542;50.924;4.516;2022-12-22T03:16:16;6.90;;;5.20;;
24407;SDS011;12542;50.924;4.516;2022-12-22T03:19:01;11.07;;;4.77;;
24407;SDS011;12542;50.924;4.516;2022-12-22T03:21:45;8.15;;;5.10;;
24407;SDS011;12542;50.924;4.516;2022-12-22T03:24:29;9.40;;;5.00;;
24407;SDS011;12542;50.924;4.516;2022-12-22T03:27:13;8.52;;;4.13;;
24407;SDS011;12542;50.924;4.516;2022-12-22T03:29:39;7.53;;;5.35;;
24407;SDS011;12542;50.924;4.516;2022-12-22T03:32:05;8.45;;;5.28;;
24407;SDS011;12542;50.924;4.516;2022-12-22T03:34:33;10.45;;;5.68;;
24407;SDS011;12542;50.924;4.516;2022-12-22T03:36:59;7.38;;;5.07;;
24407;SDS011;12542;50.924;4.516;2022-12-22T03:39:25;7.07;;;5.35;;
24407;SDS011;12542;50.924;4.516;2022-12-22T03:41:51;15.90;;;5.18;;
24407;SDS011;12542;50.924;4.516;2022-12-22T03:44:35;6.53;;;5.20;;
24407;SDS011;12542;50.924;4.516;2022-12-22T03:47:19;6.63;;;5.18;;
24407;SDS011;12542;50.924;4.516;2022-12-22T03:49:45;10.43;;;5.63;;
24407;SDS011;12542;50.924;4.516;2022-12-22T03:52:11;7.78;;;5.80;;
24407;SDS011;12542;50.924;4.516;2022-12-22T03:54:36;8.10;;;6.25;;
24407;SDS011;12542;50.924;4.516;2022-12-22T03:57:05;8.10;;;5.80;;
24407;SDS011;12542;50.924;4.516;2022-12-22T03:59:30;7.60;;;5.60;;
24407;SDS011;12542;50.924;4.516;2022-12-22T04:01:56;6.72;;;5.10;;
24407;SDS011;12542;50.924;4.516;2022-12-22T04:04:24;6.53;;;5.05;;
24407;SDS011;12542;50.924;4.516;2022-12-22T04:06:51;7.25;;;5.28;;
24407;SDS011;12542;50.924;4.516;2022-12-22T04:09:17;9.02;;;5.85;;
24407;SDS011;12542;50.924;4.516;2022-12-22T04:11:43;7.60;;;5.32;;
24407;SDS011;12542;50.924;4.516;2022-12-22T04:14:27;8.23;;;5.07;;
24407;SDS011;12542;50.924;4.516;2022-12-22T04:16:53;8.27;;;5.50;;
24407;SDS011;12542;50.924;4.516;2022-12-22T04:19:18;6.30;;;5.10;;
24407;SDS011;12542;50.924;4.516;2022-12-22T04:21:44;6.70;;;4.97;;
24407;SDS011;12542;50.924;4.516;2022-12-22T04:24:10;14.55;;;5.00;;
24407;SDS011;12542;50.924;4.516;2022-12-22T04:26:37;14.77;;;5.38;;
24407;SDS011;12542;50.924;4.516;2022-12-22T04:29:02;7.15;;;5.63;;
24407;SDS011;12542;50.924;4.516;2022-12-22T04:31:29;7.63;;;4.95;;
24407;SDS011;12542;50.924;4.516;2022-12-22T04:33:54;12.20;;;5.70;;
24407;SDS011;12542;50.924;4.516;2022-12-22T04:36:23;8.45;;;5.22;;
24407;SDS011;12542;50.924;4.516;2022-12-22T04:38:49;7.93;;;5.68;;
24407;SDS011;12542;50.924;4.516;2022-12-22T04:41:14;7.47;;;5.32;;
24407;SDS011;12542;50.924;4.516;2022-12-22T04:43:40;5.78;;;4.55;;
24407;SDS011;12542;50.924;4.516;2022-12-22T04:46:06;7.13;;;5.00;;
24407;SDS011;12542;50.924;4.516;2022-12-22T04:48:34;9.18;;;5.93;;
24407;SDS011;12542;50.924;4.516;2022-12-22T04:51:00;7.60;;;5.72;;
24407;SDS011;12542;50.924;4.516;2022-12-22T04:53:27;11.52;;;6.75;;
24407;SDS011;12542;50.924;4.516;2022-12-22T04:55:54;9.88;;;6.75;;
24407;SDS011;12542;50.924;4.516;2022-12-22T04:58:27;11.45;;;7.07;;
24407;SDS011;12542;50.924;4.516;2022-12-22T05:00:53;10.50;;;6.88;;
24407;SDS011;12542;50.924;4.516;2022-12-22T05:03:20;11.35;;;7.20;;
24407;SDS011;12542;50.924;4.516;2022-12-22T05:05:46;11.70;;;7.63;;
24407;SDS011;12542;50.924;4.516;2022-12-22T05:08:14;9.50;;;6.95;;
24407;SDS011;12542;50.924;4.516;2022-12-22T05:10:40;10.85;;;7.70;;
24407;SDS011;12542;50.924;4.516;2022-12-22T05:13:06;11.77;;;7.57;;
24407;SDS011;12542;50.924;4.516;2022-12-22T05:15:32;14.60;;;9.15;;
24407;SDS011;12542;50.924;4.516;2022-12-22T05:17:59;10.57;;;7.22;;
24407;SDS011;12542;50.924;4.516;2022-12-22T05:20:25;11.38;;;8.80;;
24407;SDS011;12542;50.924;4.516;2022-12-22T05:22:52;13.30;;;8.30;;
24407;SDS011;12542;50.924;4.516;2022-12-22T05:25:17;11.98;;;8.63;;
24407;SDS011;12542;50.924;4.516;2022-12-22T05:27:45;11.98;;;8.40;;
24407;SDS011;12542;50.924;4.516;2022-12-22T05:30:12;11.70;;;8.50;;
24407;SDS011;12542;50.924;4.516;2022-12-22T05:32:40;12.57;;;8.98;;
24407;SDS011;12542;50.924;4.516;2022-12-22T05:35:06;13.13;;;9.02;;
24407;SDS011;12542;50.924;4.516;2022-12-22T05:37:32;13.10;;;8.57;;
24407;SDS011;12542;50.924;4.516;2022-12-22T05:39:58;14.18;;;8.82;;
24407;SDS011;12542;50.924;4.516;2022-12-22T05:42:24;14.75;;;9.60;;
24407;SDS011;12542;50.924;4.516;2022-12-22T05:45:17;14.07;;;8.25;;
24407;SDS011;12542;50.924;4.516;2022-12-22T05:47:46;15.82;;;9.48;;
24407;SDS011;12542;50.924;4.516;2022-12-22T05:50:14;14.88;;;9.30;;
24407;SDS011;12542;50.924;4.516;2022-12-22T05:52:42;23.13;;;11.63;;
24407;SDS011;12542;50.924;4.516;2022-12-22T05:55:10;18.30;;;10.82;;
24407;SDS011;12542;50.924;4.516;2022-12-22T05:57:37;21.35;;;11.85;;
24407;SDS011;12542;50.924;4.516;2022-12-22T06:00:04;22.87;;;12.17;;
24407;SDS011;12542;50.924;4.516;2022-12-22T06:02:32;23.95;;;12.50;;
24407;SDS011;12542;50.924;4.516;2022-12-22T06:04:59;26.35;;;14.10;;
24407;SDS011;12542;50.924;4.516;2022-12-22T06:07:25;32.63;;;14.95;;
24407;SDS011;12542;50.924;4.516;2022-12-22T06:09:50;26.20;;;13.80;;
24407;SDS011;12542;50.924;4.516;2022-12-22T06:12:16;27.17;;;14.43;;
24407;SDS011;12542;50.924;4.516;2022-12-22T06:14:42;32.38;;;14.52;;
24407;SDS011;12542;50.924;4.516;2022-12-22T06:17:08;31.65;;;15.52;;
24407;SDS011;12542;50.924;4.516;2022-12-22T06:19:34;31.48;;;15.60;;
24407;SDS011;12542;50.924;4.516;2022-12-22T06:22:00;33.75;;;16.42;;
24407;SDS011;12542;50.924;4.516;2022-12-22T06:24:25;31.90;;;16.83;;
24407;SDS011;12542;50.924;4.516;2022-12-22T06:26:51;34.35;;;17.05;;
24407;SDS011;12542;50.924;4.516;2022-12-22T06:29:17;35.38;;;17.48;;
24407;SDS011;12542;50.924;4.516;2022-12-22T06:31:42;36.55;;;16.70;;
24407;SDS011;12542;50.924;4.516;2022-12-22T06:34:09;37.95;;;17.52;;
24407;SDS011;12542;50.924;4.516;2022-12-22T06:36:36;35.90;;;18.10;;
24407;SDS011;12542;50.924;4.516;2022-12-22T06:39:03;36.80;;;17.85;;
24407;SDS011;12542;50.924;4.516;2022-12-22T06:41:29;36.22;;;17.85;;
24407;SDS011;12542;50.924;4.516;2022-12-22T06:44:14;38.90;;;19.10;;
24407;SDS011;12542;50.924;4.516;2022-12-22T06:46:39;32.97;;;17.33;;
24407;SDS011;12542;50.924;4.516;2022-12-22T06:49:05;36.47;;;17.42;;
24407;SDS011;12542;50.924;4.516;2022-12-22T06:51:31;39.38;;;18.42;;
24407;SDS011;12542;50.924;4.516;2022-12-22T06:53:56;39.70;;;17.83;;
24407;SDS011;12542;50.924;4.516;2022-12-22T06:56:22;44.65;;;17.90;;
24407;SDS011;12542;50.924;4.516;2022-12-22T06:58:48;45.50;;;19.50;;
24407;SDS011;12542;50.924;4.516;2022-12-22T07:01:13;46.03;;;19.75;;
24407;SDS011;12542;50.924;4.516;2022-12-22T07:03:41;47.30;;;20.10;;
24407;SDS011;12542;50.924;4.516;2022-12-22T07:06:07;47.40;;;19.60;;
24407;SDS011;12542;50.924;4.516;2022-12-22T07:08:32;46.72;;;19.08;;
24407;SDS011;12542;50.924;4.516;2022-12-22T07:10:59;48.67;;;18.88;;
24407;SDS011;12542;50.924;4.516;2022-12-22T07:13:30;45.17;;;18.90;;
24407;SDS011;12542;50.924;4.516;2022-12-22T07:15:58;45.75;;;19.05;;
24407;SDS011;12542;50.924;4.516;2022-12-22T07:18:25;43.53;;;19.13;;
24407;SDS011;12542;50.924;4.516;2022-12-22T07:20:52;46.45;;;20.17;;
24407;SDS011;12542;50.924;4.516;2022-12-22T07:23:17;46.00;;;18.55;;
24407;SDS011;12542;50.924;4.516;2022-12-22T07:25:44;45.90;;;19.50;;
24407;SDS011;12542;50.924;4.516;2022-12-22T07:28:10;47.33;;;19.58;;
24407;SDS011;12542;50.924;4.516;2022-12-22T07:30:36;48.35;;;19.90;;
24407;SDS011;12542;50.924;4.516;2022-12-22T07:33:02;44.92;;;19.65;;
24407;SDS011;12542;50.924;4.516;2022-12-22T07:35:28;41.97;;;18.70;;
24407;SDS011;12542;50.924;4.516;2022-12-22T07:37:54;42.47;;;19.38;;
24407;SDS011;12542;50.924;4.516;2022-12-22T07:40:20;45.35;;;19.63;;
24407;SDS011;12542;50.924;4.516;2022-12-22T07:42:45;43.25;;;19.73;;
24407;SDS011;12542;50.924;4.516;2022-12-22T07:45:16;40.17;;;18.00;;
24407;SDS011;12542;50.924;4.516;2022-12-22T07:47:43;42.90;;;17.90;;
24407;SDS011;12542;50.924;4.516;2022-12-22T07:50:15;42.47;;;19.02;;
24407;SDS011;12542;50.924;4.516;2022-12-22T07:55:23;41.15;;;19.20;;
24407;SDS011;12542;50.924;4.516;2022-12-22T07:57:49;40.33;;;17.98;;
24407;SDS011;12542;50.924;4.516;2022-12-22T08:00:16;45.45;;;19.92;;
24407;SDS011;12542;50.924;4.516;2022-12-22T08:02:47;42.95;;;19.65;;
24407;SDS011;12542;50.924;4.516;2022-12-22T08:05:13;44.25;;;19.17;;
24407;SDS011;12542;50.924;4.516;2022-12-22T08:07:39;45.88;;;18.73;;
24407;SDS011;12542;50.924;4.516;2022-12-22T08:10:05;42.78;;;18.50;;
24407;SDS011;12542;50.924;4.516;2022-12-22T08:12:31;46.85;;;19.08;;
24407;SDS011;12542;50.924;4.516;2022-12-22T08:14:57;44.72;;;19.05;;
24407;SDS011;12542;50.924;4.516;2022-12-22T08:17:25;39.88;;;17.77;;
24407;SDS011;12542;50.924;4.516;2022-12-22T08:19:54;43.90;;;18.50;;
24407;SDS011;12542;50.924;4.516;2022-12-22T08:22:20;43.55;;;18.48;;
24407;SDS011;12542;50.924;4.516;2022-12-22T08:24:50;40.63;;;17.13;;
24407;SDS011;12542;50.924;4.516;2022-12-22T08:27:20;35.60;;;17.27;;
24407;SDS011;12542;50.924;4.516;2022-12-22T08:29:57;38.95;;;19.15;;
24407;SDS011;12542;50.924;4.516;2022-12-22T08:32:25;47.78;;;19.15;;
24407;SDS011;12542;50.924;4.516;2022-12-22T08:34:51;44.63;;;20.33;;
24407;SDS011;12542;50.924;4.516;2022-12-22T08:37:19;45.15;;;19.85;;
24407;SDS011;12542;50.924;4.516;2022-12-22T08:39:48;41.30;;;19.55;;
24407;SDS011;12542;50.924;4.516;2022-12-22T08:42:18;43.20;;;20.63;;
24407;SDS011;12542;50.924;4.516;2022-12-22T08:44:45;40.60;;;19.70;;
24407;SDS011;12542;50.924;4.516;2022-12-22T08:47:17;38.90;;;18.58;;
24407;SDS011;12542;50.924;4.516;2022-12-22T08:49:43;44.35;;;20.23;;
24407;SDS011;12542;50.924;4.516;2022-12-22T08:52:09;37.45;;;18.63;;
24407;SDS011;12542;50.924;4.516;2022-12-22T08:54:35;38.03;;;17.92;;
24407;SDS011;12542;50.924;4.516;2022-12-22T08:57:00;36.67;;;18.50;;
24407;SDS011;12542;50.924;4.516;2022-12-22T08:59:26;40.20;;;19.65;;
24407;SDS011;12542;50.924;4.516;2022-12-22T09:01:52;38.22;;;17.58;;
24407;SDS011;12542;50.924;4.516;2022-12-22T09:04:18;33.85;;;16.23;;
24407;SDS011;12542;50.924;4.516;2022-12-22T09:06:46;35.00;;;17.55;;
24407;SDS011;12542;50.924;4.516;2022-12-22T09:09:13;39.42;;;17.92;;
24407;SDS011;12542;50.924;4.516;2022-12-22T09:11:40;39.35;;;17.27;;
24407;SDS011;12542;50.924;4.516;2022-12-22T09:14:06;35.58;;;17.38;;
24407;SDS011;12542;50.924;4.516;2022-12-22T09:16:34;36.92;;;17.85;;
24407;SDS011;12542;50.924;4.516;2022-12-22T09:19:00;31.92;;;17.27;;
24407;SDS011;12542;50.924;4.516;2022-12-22T09:21:27;36.72;;;16.48;;
24407;SDS011;12542;50.924;4.516;2022-12-22T09:23:53;41.40;;;17.85;;
24407;SDS011;12542;50.924;4.516;2022-12-22T09:26:20;32.85;;;17.30;;
24407;SDS011;12542;50.924;4.516;2022-12-22T09:28:48;36.75;;;16.55;;
24407;SDS011;12542;50.924;4.516;2022-12-22T09:31:13;33.33;;;15.88;;
24407;SDS011;12542;50.924;4.516;2022-12-22T09:33:39;31.95;;;15.80;;
24407;SDS011;12542;50.924;4.516;2022-12-22T09:36:06;26.75;;;13.25;;
24407;SDS011;12542;50.924;4.516;2022-12-22T09:38:38;29.35;;;14.63;;
24407;SDS011;12542;50.924;4.516;2022-12-22T09:41:06;29.95;;;14.75;;
24407;SDS011;12542;50.924;4.516;2022-12-22T09:43:51;25.92;;;12.52;;
24407;SDS011;12542;50.924;4.516;2022-12-22T09:46:18;22.55;;;11.02;;
24407;SDS011;12542;50.924;4.516;2022-12-22T09:48:46;24.73;;;10.23;;
24407;SDS011;12542;50.924;4.516;2022-12-22T09:51:15;25.48;;;10.25;;
24407;SDS011;12542;50.924;4.516;2022-12-22T09:53:45;18.33;;;9.20;;
24407;SDS011;12542;50.924;4.516;2022-12-22T09:56:13;18.77;;;9.43;;
24407;SDS011;12542;50.924;4.516;2022-12-22T09:58:41;18.67;;;8.77;;
24407;SDS011;12542;50.924;4.516;2022-12-22T10:03:51;18.17;;;10.15;;
24407;SDS011;12542;50.924;4.516;2022-12-22T10:06:30;21.30;;;9.57;;
24407;SDS011;12542;50.924;4.516;2022-12-22T10:09:01;18.38;;;9.52;;
24407;SDS011;12542;50.924;4.516;2022-12-22T10:11:48;21.45;;;10.68;;
24407;SDS011;12542;50.924;4.516;2022-12-22T10:14:15;22.55;;;11.40;;
24407;SDS011;12542;50.924;4.516;2022-12-22T10:16:41;20.00;;;10.90;;
24407;SDS011;12542;50.924;4.516;2022-12-22T10:19:08;18.15;;;11.25;;
24407;SDS011;12542;50.924;4.516;2022-12-22T10:21:36;24.45;;;12.27;;
24407;SDS011;12542;50.924;4.516;2022-12-22T10:24:25;22.38;;;12.05;;
24407;SDS011;12542;50.924;4.516;2022-12-22T10:26:55;22.30;;;12.90;;
24407;SDS011;12542;50.924;4.516;2022-12-22T10:29:23;21.60;;;13.10;;
24407;SDS011;12542;50.924;4.516;2022-12-22T10:32:01;24.88;;;14.20;;
24407;SDS011;12542;50.924;4.516;2022-12-22T10:34:57;28.80;;;14.75;;
24407;SDS011;12542;50.924;4.516;2022-12-22T10:37:31;28.58;;;17.05;;
24407;SDS011;12542;50.924;4.516;2022-12-22T10:40:17;29.00;;;16.58;;
24407;SDS011;12542;50.924;4.516;2022-12-22T10:42:47;25.55;;;17.02;;
24407;SDS011;12542;50.924;4.516;2022-12-22T10:45:18;27.00;;;14.90;;
24407;SDS011;12542;50.924;4.516;2022-12-22T10:47:48;23.75;;;14.25;;
24407;SDS011;12542;50.924;4.516;2022-12-22T10:50:15;23.65;;;12.10;;
24407;SDS011;12542;50.924;4.516;2022-12-22T10:52:48;18.55;;;12.40;;
24407;SDS011;12542;50.924;4.516;2022-12-22T10:55:26;20.10;;;12.15;;
24407;SDS011;12542;50.924;4.516;2022-12-22T10:58:15;19.02;;;12.45;;
24407;SDS011;12542;50.924;4.516;2022-12-22T11:00:43;20.40;;;13.02;;
24407;SDS011;12542;50.924;4.516;2022-12-22T11:03:29;17.83;;;9.15;;
24407;SDS011;12542;50.924;4.516;2022-12-22T11:05:57;15.73;;;9.38;;
24407;SDS011;12542;50.924;4.516;2022-12-22T11:08:24;15.18;;;9.68;;
24407;SDS011;12542;50.924;4.516;2022-12-22T11:11:01;18.90;;;9.75;;
24407;SDS011;12542;50.924;4.516;2022-12-22T11:16:24;13.10;;;8.63;;
24407;SDS011;12542;50.924;4.516;2022-12-22T11:19:06;14.40;;;8.18;;
24407;SDS011;12542;50.924;4.516;2022-12-22T11:33:27;12.45;;;8.10;;
24407;SDS011;12542;50.924;4.516;2022-12-22T11:36:05;11.50;;;7.15;;
24407;SDS011;12542;50.924;4.516;2022-12-22T11:38:57;8.13;;;5.60;;
24407;SDS011;12542;50.924;4.516;2022-12-22T11:44:39;12.25;;;5.72;;
24407;SDS011;12542;50.924;4.516;2022-12-22T11:49:57;10.32;;;5.20;;
24407;SDS011;12542;50.924;4.516;2022-12-22T11:52:43;11.40;;;5.80;;
24407;SDS011;12542;50.924;4.516;2022-12-22T11:55:19;7.72;;;4.43;;
24407;SDS011;12542;50.924;4.516;2022-12-22T12:00:41;9.75;;;4.50;;
24407;SDS011;12542;50.924;4.516;2022-12-22T12:20:18;6.47;;;2.92;;
24407;SDS011;12542;50.924;4.516;2022-12-22T12:22:55;6.35;;;2.40;;
24407;SDS011;12542;50.924;4.516;2022-12-22T12:31:23;7.93;;;2.40;;
24407;SDS011;12542;50.924;4.516;2022-12-22T12:33:55;4.90;;;2.40;;
24407;SDS011;12542;50.924;4.516;2022-12-22T12:36:28;5.93;;;2.20;;
24407;SDS011;12542;50.924;4.516;2022-12-22T12:45:18;7.38;;;2.63;;
24407;SDS011;12542;50.924;4.516;2022-12-22T12:50:51;7.60;;;3.25;;
24407;SDS011;12542;50.924;4.516;2022-12-22T12:53:24;6.45;;;2.10;;
24407;SDS011;12542;50.924;4.516;2022-12-22T13:01:04;2.65;;;1.70;;
24407;SDS011;12542;50.924;4.516;2022-12-22T13:03:36;3.58;;;1.50;;
24407;SDS011;12542;50.924;4.516;2022-12-22T13:06:03;3.38;;;2.00;;
24407;SDS011;12542;50.924;4.516;2022-12-22T13:11:32;5.72;;;1.73;;
24407;SDS011;12542;50.924;4.516;2022-12-22T13:14:00;5.28;;;1.92;;
24407;SDS011;12542;50.924;4.516;2022-12-22T13:16:27;5.75;;;1.88;;
24407;SDS011;12542;50.924;4.516;2022-12-22T13:18:55;3.17;;;1.58;;
24407;SDS011;12542;50.924;4.516;2022-12-22T13:21:24;4.07;;;1.92;;
24407;SDS011;12542;50.924;4.516;2022-12-22T13:26:27;4.97;;;1.80;;
24407;SDS011;12542;50.924;4.516;2022-12-22T13:28:58;3.47;;;2.08;;
24407;SDS011;12542;50.924;4.516;2022-12-22T13:36:51;5.57;;;2.00;;
24407;SDS011;12542;50.924;4.516;2022-12-22T13:39:19;6.68;;;2.63;;
24407;SDS011;12542;50.924;4.516;2022-12-22T13:41:48;7.60;;;2.17;;
24407;SDS011;12542;50.924;4.516;2022-12-22T13:44:15;6.15;;;2.45;;
24407;SDS011;12542;50.924;4.516;2022-12-22T13:46:49;5.88;;;2.50;;
24407;SDS011;12542;50.924;4.516;2022-12-22T13:49:15;3.20;;;2.33;;
24407;SDS011;12542;50.924;4.516;2022-12-22T13:51:43;4.80;;;2.55;;
24407;SDS011;12542;50.924;4.516;2022-12-22T13:54:22;5.28;;;2.50;;
24407;SDS011;12542;50.924;4.516;2022-12-22T13:57:00;7.88;;;2.72;;
24407;SDS011;12542;50.924;4.516;2022-12-22T13:59:43;5.75;;;2.70;;
24407;SDS011;12542;50.924;4.516;2022-12-22T14:02:16;5.65;;;2.88;;
24407;SDS011;12542;50.924;4.516;2022-12-22T14:05:05;8.95;;;3.05;;
24407;SDS011;12542;50.924;4.516;2022-12-22T14:07:34;12.70;;;3.50;;
24407;SDS011;12542;50.924;4.516;2022-12-22T14:10:00;11.10;;;3.90;;
24407;SDS011;12542;50.924;4.516;2022-12-22T14:12:28;9.25;;;3.53;;
24407;SDS011;12542;50.924;4.516;2022-12-22T14:14:56;8.75;;;3.85;;
24407;SDS011;12542;50.924;4.516;2022-12-22T14:17:28;9.10;;;3.38;;
24407;SDS011;12542;50.924;4.516;2022-12-22T14:19:57;7.18;;;3.88;;
24407;SDS011;12542;50.924;4.516;2022-12-22T14:22:41;15.90;;;4.07;;
24407;SDS011;12542;50.924;4.516;2022-12-22T14:25:19;8.20;;;3.90;;
24407;SDS011;12542;50.924;4.516;2022-12-22T14:27:51;9.38;;;4.50;;
24407;SDS011;12542;50.924;4.516;2022-12-22T14:30:53;11.65;;;4.30;;
24407;SDS011;12542;50.924;4.516;2022-12-22T14:33:15;9.32;;;4.40;;
24407;SDS011;12542;50.924;4.516;2022-12-22T14:35:47;11.18;;;3.70;;
24407;SDS011;12542;50.924;4.516;2022-12-22T14:38:21;8.77;;;3.45;;
24407;SDS011;12542;50.924;4.516;2022-12-22T14:40:48;10.48;;;4.68;;
24407;SDS011;12542;50.924;4.516;2022-12-22T14:45:43;22.23;;;4.78;;
24407;SDS011;12542;50.924;4.516;2022-12-22T14:48:18;19.08;;;4.72;;
24407;SDS011;12542;50.924;4.516;2022-12-22T14:50:47;19.90;;;4.88;;
24407;SDS011;12542;50.924;4.516;2022-12-22T14:53:15;25.83;;;6.25;;
24407;SDS011;12542;50.924;4.516;2022-12-22T14:55:49;20.73;;;5.43;;
24407;SDS011;12542;50.924;4.516;2022-12-22T14:58:24;14.60;;;5.07;;
24407;SDS011;12542;50.924;4.516;2022-12-22T15:03:42;26.75;;;5.60;;
24407;SDS011;12542;50.924;4.516;2022-12-22T15:06:43;23.67;;;4.82;;
24407;SDS011;12542;50.924;4.516;2022-12-22T15:11:29;24.45;;;4.60;;
24407;SDS011;12542;50.924;4.516;2022-12-22T15:13:55;23.67;;;4.93;;
24407;SDS011;12542;50.924;4.516;2022-12-22T15:16:21;25.27;;;5.05;;
24407;SDS011;12542;50.924;4.516;2022-12-22T15:18:48;31.90;;;5.10;;
24407;SDS011;12542;50.924;4.516;2022-12-22T15:21:16;27.42;;;5.55;;
24407;SDS011;12542;50.924;4.516;2022-12-22T15:23:43;27.25;;;5.90;;
24407;SDS011;12542;50.924;4.516;2022-12-22T15:26:10;23.70;;;5.03;;
24407;SDS011;12542;50.924;4.516;2022-12-22T15:28:37;31.50;;;5.85;;
24407;SDS011;12542;50.924;4.516;2022-12-22T15:31:05;30.60;;;5.78;;
24407;SDS011;12542;50.924;4.516;2022-12-22T15:36:04;23.50;;;6.20;;
24407;SDS011;12542;50.924;4.516;2022-12-22T15:38:33;30.25;;;6.45;;
24407;SDS011;12542;50.924;4.516;2022-12-22T15:40:59;36.03;;;6.32;;
24407;SDS011;12542;50.924;4.516;2022-12-22T15:43:25;28.17;;;5.75;;
24407;SDS011;12542;50.924;4.516;2022-12-22T15:45:51;39.20;;;6.38;;
24407;SDS011;12542;50.924;4.516;2022-12-22T15:48:23;41.13;;;6.20;;
24407;SDS011;12542;50.924;4.516;2022-12-22T15:50:54;36.55;;;6.75;;
24407;SDS011;12542;50.924;4.516;2022-12-22T15:53:21;33.85;;;6.47;;
24407;SDS011;12542;50.924;4.516;2022-12-22T15:55:50;42.10;;;6.47;;
24407;SDS011;12542;50.924;4.516;2022-12-22T15:58:21;40.58;;;6.93;;
24407;SDS011;12542;50.924;4.516;2022-12-22T16:00:51;28.40;;;7.28;;
24407;SDS011;12542;50.924;4.516;2022-12-22T16:03:17;38.78;;;6.10;;
24407;SDS011;12542;50.924;4.516;2022-12-22T16:05:43;35.90;;;6.30;;
24407;SDS011;12542;50.924;4.516;2022-12-22T16:08:14;49.65;;;7.65;;
24407;SDS011;12542;50.924;4.516;2022-12-22T16:10:44;43.53;;;6.77;;
24407;SDS011;12542;50.924;4.516;2022-12-22T16:13:11;53.72;;;9.30;;
24407;SDS011;12542;50.924;4.516;2022-12-22T16:15:39;40.30;;;6.70;;
24407;SDS011;12542;50.924;4.516;2022-12-22T16:18:05;50.28;;;8.93;;
24407;SDS011;12542;50.924;4.516;2022-12-22T16:20:36;51.28;;;8.30;;
24407;SDS011;12542;50.924;4.516;2022-12-22T16:23:14;46.88;;;7.47;;
24407;SDS011;12542;50.924;4.516;2022-12-22T16:25:43;51.60;;;8.90;;
24407;SDS011;12542;50.924;4.516;2022-12-22T16:28:13;57.78;;;8.55;;
24407;SDS011;12542;50.924;4.516;2022-12-22T16:30:43;38.35;;;7.38;;
24407;SDS011;12542;50.924;4.516;2022-12-22T16:33:10;44.08;;;8.10;;
24407;SDS011;12542;50.924;4.516;2022-12-22T16:35:39;39.03;;;6.97;;
24407;SDS011;12542;50.924;4.516;2022-12-22T16:38:06;56.63;;;8.75;;
24407;SDS011;12542;50.924;4.516;2022-12-22T16:40:32;41.13;;;7.10;;
24407;SDS011;12542;50.924;4.516;2022-12-22T16:45:36;59.13;;;8.93;;
24407;SDS011;12542;50.924;4.516;2022-12-22T16:48:06;57.72;;;8.05;;
24407;SDS011;12542;50.924;4.516;2022-12-22T16:50:37;54.55;;;7.80;;
24407;SDS011;12542;50.924;4.516;2022-12-22T16:53:03;51.40;;;9.48;;
24407;SDS011;12542;50.924;4.516;2022-12-22T16:55:30;47.90;;;7.47;;
24407;SDS011;12542;50.924;4.516;2022-12-22T16:57:57;63.00;;;8.70;;
24407;SDS011;12542;50.924;4.516;2022-12-22T17:00:24;57.95;;;8.52;;
24407;SDS011;12542;50.924;4.516;2022-12-22T17:02:54;53.75;;;8.07;;